Terminal Aerodrome Forecast
Issued by NWS Medford, OR

Home | Current Version | Previous Version | Text Only | Print | Product List | Glossary On
Versions: 1 2 3 4 5 6 7 8 9 10 11 12 13 14
000
FTUS46 KMFR 252327
TAFMFR
TAF
KMFR 252327Z 2600/2624 30008KT P6SM VCTS SCT060CB BKN250
     FM260900 29005KT P6SM FEW080 SCT120 BKN250
     FM261800 30006KT P6SM BKN250=

USA.gov is the U.S. government's official web portal to all federal, state and local government web resources and services.